This is the latest recevied weather packets stored in our database for station/object HS5GDX-4. If no packets are shown the sender has not sent any weather packets the latest 10 day(s).
| Time | Temp. | Humidity | Pressure | Rain* | Wind** | Luminosity | Snow |
|---|---|---|---|---|---|---|---|
| 1788547218 | 28.33° C | 74% | 967 hPa | - | - | 0 W/m² | - |
| 1788536125 | 29.44° C | 71% | 968 hPa | - | - | 0 W/m² | - |
| 1788534276 | 29.44° C | 71% | 968 hPa | - | - | 0 W/m² | - |
| 1788532428 | 28.89° C | 72% | 968 hPa | - | - | 0 W/m² | - |
| 1788531504 | 28.89° C | 73% | 967 hPa | - | - | 0 W/m² | - |
| 1788528729 | 28.89° C | 74% | 967 hPa | - | - | 0 W/m² | - |
| 1788527805 | 28.33° C | 77% | 967 hPa | - | - | 0 W/m² | - |
| 1788526881 | 29.44° C | 74% | 967 hPa | - | - | 0 W/m² | - |
| 1788525956 | 28.89° C | 75% | 966 hPa | - | - | 0 W/m² | - |
| 1788525032 | 29.44° C | 74% | 966 hPa | - | - | 0 W/m² | - |
| 1788524107 | 30° C | 73% | 966 hPa | - | - | 0 W/m² | - |
| 1788522258 | 30° C | 73% | 965 hPa | - | - | 0 W/m² | - |
| 1788521334 | 30° C | 75% | 965 hPa | - | - | 0 W/m² | - |
| 1788517636 | 30.56° C | 72% | 964 hPa | - | - | 0 W/m² | - |
| 1788516711 | 30.56° C | 73% | 964 hPa | - | - | 0 W/m² | - |
| 1788515787 | 31.11° C | 72% | 964 hPa | - | - | 0 W/m² | - |
| 1788514863 | 31.11° C | 73% | 964 hPa | - | - | 0 W/m² | - |
| 1788513939 | 31.11° C | 74% | 964 hPa | - | - | 0 W/m² | - |
| 1788513014 | 31.11° C | 74% | 964 hPa | - | - | 0 W/m² | - |
| 1788511165 | 31.11° C | 73% | 964 hPa | - | - | 0 W/m² | - |
| 1788510241 | 31.11° C | 74% | 964 hPa | - | - | 0 W/m² | - |
| 1788509316 | 31.11° C | 74% | 964 hPa | - | - | 0 W/m² | - |
| 1788508392 | 31.11° C | 73% | 964 hPa | - | - | 0 W/m² | - |
| 1788507468 | 31.11° C | 73% | 964 hPa | - | - | 0 W/m² | - |
| 1788506543 | 31.11° C | 71% | 965 hPa | - | - | 0 W/m² | - |
* Rain since midnight (hover to see other rain measurements)
** Current wind speed in m/s (hover to see current wind gust speed)